Time,TemperatureF,DewpointF,PressureIn,WindDirection,WindDirectionDegrees,WindSpeedMPH,WindSpeedGustMPH,Humidity,HourlyPrecipIn,Conditions,Clouds,dailyrainin,SoftwareType,DateUTC
2013-02-18 00:04:00,37.4,30.5,30.19,WNW,292,2.7,-999.0,76,-99.99,,,0.00,Acu-Link.com,2013-02-18 05:04:00,
2013-02-18 00:19:00,37.6,29.7,30.19,NW,315,1.7,-999.0,73,-99.99,,,0.00,Acu-Link.com,2013-02-18 05:19:00,
2013-02-18 00:34:00,37.6,29.4,30.20,WNW,292,2.2,-999.0,72,-99.99,,,0.00,Acu-Link.com,2013-02-18 05:34:00,
2013-02-18 00:50:00,37.2,29.0,30.19,West,270,0.0,-999.0,72,-99.99,,,0.00,Acu-Link.com,2013-02-18 05:50:00,
2013-02-18 01:20:00,36.0,28.9,30.19,West,270,0.0,-999.0,75,-99.99,,,0.00,Acu-Link.com,2013-02-18 06:20:00,
2013-02-18 01:35:00,35.8,29.0,30.20,WSW,247,0.0,-999.0,76,-99.99,,,0.00,Acu-Link.com,2013-02-18 06:35:00,
2013-02-18 01:50:00,34.9,29.1,30.19,NE,45,0.0,-999.0,79,-99.99,,,0.00,Acu-Link.com,2013-02-18 06:50:00,
2013-02-18 02:06:00,33.8,28.6,30.18,WSW,247,0.0,-999.0,81,-99.99,,,0.00,Acu-Link.com,2013-02-18 07:06:00,
2013-02-18 02:21:00,33.8,27.7,30.19,NE,45,0.0,-999.0,78,-99.99,,,0.00,Acu-Link.com,2013-02-18 07:21:00,
2013-02-18 02:36:00,33.8,28.3,30.19,ESE,112,0.0,-999.0,80,-99.99,,,0.00,Acu-Link.com,2013-02-18 07:36:00,
2013-02-18 02:51:00,33.8,28.3,30.18,SSE,157,0.0,-999.0,80,-99.99,,,0.00,Acu-Link.com,2013-02-18 07:51:00,
2013-02-18 03:06:00,34.7,25.6,30.18,NNE,22,1.7,-999.0,69,-99.99,,,0.00,Acu-Link.com,2013-02-18 08:06:00,
2013-02-18 03:22:00,34.9,25.4,30.18,NNE,22,0.0,-999.0,68,-99.99,,,0.00,Acu-Link.com,2013-02-18 08:22:00,
2013-02-18 03:37:00,34.3,25.2,30.18,ENE,67,0.0,-999.0,69,-99.99,,,0.00,Acu-Link.com,2013-02-18 08:37:00,
2013-02-18 03:52:00,34.3,24.9,30.18,SSW,202,0.0,-999.0,68,-99.99,,,0.00,Acu-Link.com,2013-02-18 08:52:00,
2013-02-18 04:18:00,33.8,25.4,30.17,ESE,112,0.0,-999.0,71,-99.99,,,0.00,Acu-Link.com,2013-02-18 09:18:00,
2013-02-18 04:33:00,33.1,25.4,30.18,WNW,292,0.0,-999.0,73,-99.99,,,0.00,Acu-Link.com,2013-02-18 09:33:00,
2013-02-18 04:48:00,33.1,25.1,30.19,NNE,22,0.0,-999.0,72,-99.99,,,0.00,Acu-Link.com,2013-02-18 09:48:00,
2013-02-18 05:03:00,33.1,25.4,30.19,ESE,112,0.0,-999.0,73,-99.99,,,0.00,Acu-Link.com,2013-02-18 10:03:00,
2013-02-18 05:19:00,33.1,27.3,30.18,East,90,0.0,-999.0,79,-99.99,,,0.00,Acu-Link.com,2013-02-18 10:19:00,
2013-02-18 05:34:00,32.9,26.2,30.18,North,0,0.0,-999.0,76,-99.99,,,0.00,Acu-Link.com,2013-02-18 10:34:00,
2013-02-18 05:49:00,32.9,24.5,30.18,NNE,22,0.0,-999.0,71,-99.99,,,0.00,Acu-Link.com,2013-02-18 10:49:00,
2013-02-18 06:04:00,34.3,21.5,30.19,East,90,0.0,-999.0,59,-99.99,,,0.00,Acu-Link.com,2013-02-18 11:04:00,
2013-02-18 06:19:00,36.0,19.6,30.18,ESE,112,2.2,-999.0,51,-99.99,,,0.00,Acu-Link.com,2013-02-18 11:19:00,
2013-02-18 06:35:00,36.0,19.2,30.19,ENE,67,0.0,-999.0,50,-99.99,,,0.00,Acu-Link.com,2013-02-18 11:35:00,
2013-02-18 06:50:00,36.0,20.1,30.19,NNE,22,0.0,-999.0,52,-99.99,,,0.00,Acu-Link.com,2013-02-18 11:50:00,
2013-02-18 07:20:00,36.7,20.8,30.20,WNW,292,0.0,-999.0,52,-99.99,,,0.00,Acu-Link.com,2013-02-18 12:20:00,
2013-02-18 07:35:00,39.0,20.5,30.18,NNW,337,2.2,-999.0,47,-99.99,,,0.00,Acu-Link.com,2013-02-18 12:35:00,
2013-02-18 07:51:00,42.1,21.2,30.19,ESE,112,2.2,-999.0,43,-99.99,,,0.00,Acu-Link.com,2013-02-18 12:51:00,
2013-02-18 08:06:00,42.4,21.0,30.21,ESE,112,4.7,-999.0,42,-99.99,,,0.00,Acu-Link.com,2013-02-18 13:06:00,
2013-02-18 08:21:00,44.4,20.4,30.20,NE,45,4.2,-999.0,38,-99.99,,,0.00,Acu-Link.com,2013-02-18 13:21:00,
2013-02-18 08:36:00,45.3,20.6,30.21,East,90,4.2,-999.0,37,-99.99,,,0.00,Acu-Link.com,2013-02-18 13:36:00,
2013-02-18 08:51:00,46.8,20.6,30.21,NNE,22,2.7,-999.0,35,-99.99,,,0.00,Acu-Link.com,2013-02-18 13:51:00,
2013-02-18 09:07:00,48.4,20.6,30.20,NW,315,4.2,-999.0,33,-99.99,,,0.00,Acu-Link.com,2013-02-18 14:07:00,
2013-02-18 09:22:00,50.4,23.1,30.23,SE,135,4.2,-999.0,34,-99.99,,,0.00,Acu-Link.com,2013-02-18 14:22:00,
2013-02-18 09:37:00,51.8,22.1,30.22,NE,45,4.2,-999.0,31,-99.99,,,0.00,Acu-Link.com,2013-02-18 14:37:00,
2013-02-18 09:52:00,53.1,24.8,30.22,East,90,6.8,-999.0,33,-99.99,,,0.00,Acu-Link.com,2013-02-18 14:52:00,
2013-02-18 10:07:00,53.6,26.6,30.22,North,0,4.2,-999.0,35,-99.99,,,0.00,Acu-Link.com,2013-02-18 15:07:00,
2013-02-18 10:23:00,54.9,28.5,30.22,NNE,22,4.7,-999.0,36,-99.99,,,0.00,Acu-Link.com,2013-02-18 15:23:00,
2013-02-18 10:38:00,56.7,30.7,30.22,East,90,6.8,-999.0,37,-99.99,,,0.00,Acu-Link.com,2013-02-18 15:38:00,
2013-02-18 10:53:00,57.2,31.8,30.22,NNE,22,4.7,-999.0,38,-99.99,,,0.00,Acu-Link.com,2013-02-18 15:53:00,
2013-02-18 11:08:00,58.1,32.0,30.22,ESE,112,4.7,-999.0,37,-99.99,,,0.00,Acu-Link.com,2013-02-18 16:08:00,
2013-02-18 11:24:00,60.4,34.7,30.21,ESE,112,6.8,-999.0,38,-99.99,,,0.00,Acu-Link.com,2013-02-18 16:24:00,
2013-02-18 11:39:00,59.9,34.2,30.21,ENE,67,4.7,-999.0,38,-99.99,,,0.00,Acu-Link.com,2013-02-18 16:39:00,
2013-02-18 11:54:00,61.3,35.5,30.20,SW,225,2.2,-999.0,38,-99.99,,,0.00,Acu-Link.com,2013-02-18 16:54:00,
2013-02-18 12:09:00,62.2,36.3,30.19,South,180,6.3,-999.0,38,-99.99,,,0.00,Acu-Link.com,2013-02-18 17:09:00,
2013-02-18 12:24:00,64.2,38.1,30.18,East,90,4.7,-999.0,38,-99.99,,,0.00,Acu-Link.com,2013-02-18 17:24:00,
2013-02-18 12:40:00,64.2,36.7,30.17,ESE,112,5.8,-999.0,36,-99.99,,,0.00,Acu-Link.com,2013-02-18 17:40:00,
2013-02-18 12:55:00,64.2,37.4,30.16,ESE,112,5.3,-999.0,37,-99.99,,,0.00,Acu-Link.com,2013-02-18 17:55:00,
2013-02-18 13:10:00,64.6,37.7,30.15,ESE,112,6.3,-999.0,37,-99.99,,,0.00,Acu-Link.com,2013-02-18 18:10:00,
2013-02-18 13:25:00,65.8,38.1,30.14,ESE,112,10.4,-999.0,36,-99.99,,,0.00,Acu-Link.com,2013-02-18 18:25:00,
2013-02-18 13:40:00,66.2,37.0,30.12,SE,135,3.2,-999.0,34,-99.99,,,0.00,Acu-Link.com,2013-02-18 18:40:00,
2013-02-18 13:56:00,66.2,38.5,30.13,North,0,1.1,-999.0,36,-99.99,,,0.00,Acu-Link.com,2013-02-18 18:56:00,
2013-02-18 14:11:00,67.3,39.4,30.11,SSE,157,7.3,-999.0,36,-99.99,,,0.00,Acu-Link.com,2013-02-18 19:11:00,
2013-02-18 14:26:00,67.1,40.0,30.13,ESE,112,6.8,-999.0,37,-99.99,,,0.00,Acu-Link.com,2013-02-18 19:26:00,
2013-02-18 14:41:00,67.1,41.3,30.11,ESE,112,10.4,-999.0,39,-99.99,,,0.00,Acu-Link.com,2013-02-18 19:41:00,
2013-02-18 14:56:00,66.7,41.6,30.11,SE,135,9.4,-999.0,40,-99.99,,,0.00,Acu-Link.com,2013-02-18 19:56:00,
2013-02-18 15:12:00,66.7,41.6,30.11,ESE,112,5.8,-999.0,40,-99.99,,,0.00,Acu-Link.com,2013-02-18 20:12:00,
2013-02-18 15:27:00,66.6,42.2,30.11,ESE,112,3.2,-999.0,41,-99.99,,,0.00,Acu-Link.com,2013-02-18 20:27:00,
2013-02-18 15:42:00,66.6,42.2,30.11,ESE,112,4.7,-999.0,41,-99.99,,,0.00,Acu-Link.com,2013-02-18 20:42:00,
2013-02-18 15:57:00,66.4,42.6,30.10,ESE,112,8.9,-999.0,42,-99.99,,,0.00,Acu-Link.com,2013-02-18 20:57:00,
2013-02-18 16:13:00,65.5,43.0,30.11,South,180,10.9,-999.0,44,-99.99,,,0.00,Acu-Link.com,2013-02-18 21:13:00,
2013-02-18 16:28:00,66.2,43.6,30.10,ESE,112,6.8,-999.0,44,-99.99,,,0.00,Acu-Link.com,2013-02-18 21:28:00,
2013-02-18 16:43:00,63.9,43.3,30.11,SE,135,5.8,-999.0,47,-99.99,,,0.00,Acu-Link.com,2013-02-18 21:43:00,
2013-02-18 16:58:00,63.9,43.3,30.10,SE,135,8.3,-999.0,47,-99.99,,,0.00,Acu-Link.com,2013-02-18 21:58:00,
2013-02-18 17:13:00,63.7,43.1,30.11,ESE,112,9.4,-999.0,47,-99.99,,,0.00,Acu-Link.com,2013-02-18 22:13:00,
2013-02-18 17:29:00,63.3,43.3,30.11,ESE,112,5.8,-999.0,48,-99.99,,,0.00,Acu-Link.com,2013-02-18 22:29:00,
2013-02-18 17:44:00,62.2,43.3,30.11,ESE,112,6.3,-999.0,50,-99.99,,,0.00,Acu-Link.com,2013-02-18 22:44:00,
2013-02-18 17:59:00,61.3,43.5,30.11,ESE,112,8.3,-999.0,52,-99.99,,,0.00,Acu-Link.com,2013-02-18 22:59:00,
2013-02-18 18:14:00,60.4,43.7,30.11,ESE,112,7.3,-999.0,54,-99.99,,,0.00,Acu-Link.com,2013-02-18 23:14:00,
2013-02-18 18:29:00,59.7,44.0,30.10,ESE,112,3.2,-999.0,56,-99.99,,,0.00,Acu-Link.com,2013-02-18 23:29:00,
2013-02-18 18:45:00,58.8,44.5,30.10,East,90,4.7,-999.0,59,-99.99,,,0.00,Acu-Link.com,2013-02-18 23:45:00,
2013-02-18 19:00:00,57.9,44.5,30.10,SSE,157,5.3,-999.0,61,-99.99,,,0.00,Acu-Link.com,2013-02-19 00:00:00,
2013-02-18 19:15:00,57.6,45.1,30.10,ESE,112,4.7,-999.0,63,-99.99,,,0.00,Acu-Link.com,2013-02-19 00:15:00,
2013-02-18 19:30:00,57.0,44.9,30.10,SE,135,3.7,-999.0,64,-99.99,,,0.00,Acu-Link.com,2013-02-19 00:30:00,
2013-02-18 19:46:00,56.3,45.1,30.09,ESE,112,4.2,-999.0,66,-99.99,,,0.00,Acu-Link.com,2013-02-19 00:46:00,
2013-02-18 20:01:00,55.8,45.4,30.10,ESE,112,4.2,-999.0,68,-99.99,,,0.00,Acu-Link.com,2013-02-19 01:01:00,
2013-02-18 20:16:00,55.2,45.2,30.11,ESE,112,3.2,-999.0,69,-99.99,,,0.00,Acu-Link.com,2013-02-19 01:16:00,
2013-02-18 20:31:00,54.9,45.3,30.10,ESE,112,4.7,-999.0,70,-99.99,,,0.00,Acu-Link.com,2013-02-19 01:31:00,
2013-02-18 20:46:00,54.0,45.2,30.10,ENE,67,2.7,-999.0,72,-99.99,,,0.00,Acu-Link.com,2013-02-19 01:46:00,
2013-02-18 21:02:00,53.4,45.7,30.10,East,90,3.2,-999.0,75,-99.99,,,0.00,Acu-Link.com,2013-02-19 02:02:00,
2013-02-18 21:17:00,53.1,45.7,30.09,East,90,4.2,-999.0,76,-99.99,,,0.00,Acu-Link.com,2013-02-19 02:17:00,
2013-02-18 21:32:00,52.3,45.6,30.08,ESE,112,4.2,-999.0,78,-99.99,,,0.00,Acu-Link.com,2013-02-19 02:32:00,
2013-02-18 21:47:00,52.7,46.0,30.08,ESE,112,4.2,-999.0,78,-99.99,,,0.00,Acu-Link.com,2013-02-19 02:47:00,
2013-02-18 22:02:00,52.2,45.6,30.08,SE,135,2.7,-999.0,78,-99.99,,,0.00,Acu-Link.com,2013-02-19 03:02:00,
2013-02-18 22:18:00,51.6,45.6,30.08,SE,135,2.7,-999.0,80,-99.99,,,0.00,Acu-Link.com,2013-02-19 03:18:00,
2013-02-18 22:33:00,51.1,45.8,30.08,SE,135,2.2,-999.0,82,-99.99,,,0.00,Acu-Link.com,2013-02-19 03:33:00,
2013-02-18 22:48:00,51.1,45.8,30.07,ESE,112,3.2,-999.0,82,-99.99,,,0.00,Acu-Link.com,2013-02-19 03:48:00,
2013-02-18 23:04:00,51.3,46.0,30.06,East,90,2.7,-999.0,82,-99.99,,,0.00,Acu-Link.com,2013-02-19 04:04:00,
2013-02-18 23:19:00,51.4,46.1,30.06,SE,135,3.7,-999.0,82,-99.99,,,0.00,Acu-Link.com,2013-02-19 04:19:00,
2013-02-18 23:49:00,50.5,45.5,30.06,ESE,112,0.0,-999.0,83,-99.99,,,0.00,Acu-Link.com,2013-02-19 04:49:00,